createdAt,value
2023-04-16T00:00:45.038Z,1015.52
2023-04-16T00:01:45.094Z,1015.51
2023-04-16T00:02:45.167Z,1015.52
2023-04-16T00:03:45.183Z,1015.50
2023-04-16T00:04:45.095Z,1015.53
2023-04-16T00:05:45.041Z,1015.52
2023-04-16T00:06:45.000Z,1015.52
2023-04-16T00:07:45.037Z,1015.55
2023-04-16T00:08:45.017Z,1015.51
2023-04-16T00:09:45.012Z,1015.50
2023-04-16T00:10:44.987Z,1015.51
2023-04-16T00:11:45.009Z,1015.49
2023-04-16T00:12:45.013Z,1015.46
2023-04-16T00:13:45.008Z,1015.48
2023-04-16T00:14:44.972Z,1015.50
2023-04-16T00:15:45.004Z,1015.52
2023-04-16T00:16:44.997Z,1015.46
2023-04-16T00:17:44.999Z,1015.49
2023-04-16T00:18:45.033Z,1015.49
2023-04-16T00:19:44.974Z,1015.50
2023-04-16T00:20:44.983Z,1015.55
2023-04-16T00:21:44.965Z,1015.50
2023-04-16T00:22:44.961Z,1015.50
2023-04-16T00:23:44.948Z,1015.50
2023-04-16T00:24:44.968Z,1015.54
2023-04-16T00:25:44.948Z,1015.55
2023-04-16T00:26:44.938Z,1015.52
2023-04-16T00:27:44.943Z,1015.53
2023-04-16T00:28:44.940Z,1015.52
2023-04-16T00:29:44.941Z,1015.50
2023-04-16T00:30:45.009Z,1015.51
2023-04-16T00:31:44.922Z,1015.52
2023-04-16T00:32:44.950Z,1015.52
2023-04-16T00:33:44.924Z,1015.54
2023-04-16T00:34:44.912Z,1015.50
2023-04-16T00:35:44.887Z,1015.53
2023-04-16T00:36:44.890Z,1015.51
2023-04-16T00:37:44.935Z,1015.48
2023-04-16T00:38:44.876Z,1015.48
2023-04-16T00:39:44.896Z,1015.53
2023-04-16T00:40:44.903Z,1015.50
2023-04-16T00:41:44.918Z,1015.50
2023-04-16T00:42:44.918Z,1015.53
2023-04-16T00:43:44.863Z,1015.52
2023-04-16T00:44:44.880Z,1015.54
2023-04-16T00:45:44.868Z,1015.55
2023-04-16T00:46:44.920Z,1015.51
2023-04-16T00:47:44.866Z,1015.54
2023-04-16T00:48:44.924Z,1015.53
2023-04-16T00:49:44.845Z,1015.53
2023-04-16T00:50:44.823Z,1015.56
2023-04-16T00:51:44.841Z,1015.56
2023-04-16T00:52:44.813Z,1015.56
2023-04-16T00:53:44.843Z,1015.54
2023-04-16T00:54:44.840Z,1015.61
2023-04-16T00:55:44.813Z,1015.56
2023-04-16T00:56:44.803Z,1015.56
2023-04-16T00:57:44.801Z,1015.57
2023-04-16T00:58:44.829Z,1015.57
2023-04-16T00:59:44.805Z,1015.59
2023-04-16T01:00:44.821Z,1015.61
2023-04-16T01:01:44.864Z,1015.58
2023-04-16T01:02:44.965Z,1015.60
2023-04-16T01:03:44.872Z,1015.63
2023-04-16T01:04:44.767Z,1015.59
2023-04-16T01:05:44.785Z,1015.60
2023-04-16T01:06:44.766Z,1015.64
2023-04-16T01:07:44.767Z,1015.62
2023-04-16T01:08:44.755Z,1015.60
2023-04-16T01:09:44.776Z,1015.61
2023-04-16T01:10:44.757Z,1015.58
2023-04-16T01:11:44.745Z,1015.60
2023-04-16T01:12:44.748Z,1015.63
2023-04-16T01:13:44.760Z,1015.58
2023-04-16T01:14:44.798Z,1015.55
2023-04-16T01:15:44.798Z,1015.58
2023-04-16T01:16:44.795Z,1015.61
2023-04-16T01:17:44.759Z,1015.62
2023-04-16T01:18:44.712Z,1015.58
2023-04-16T01:19:44.717Z,1015.56
2023-04-16T01:20:44.708Z,1015.60
2023-04-16T01:21:44.742Z,1015.64
2023-04-16T01:22:44.742Z,1015.62
2023-04-16T01:23:44.726Z,1015.62
2023-04-16T01:24:44.704Z,1015.62
2023-04-16T01:25:44.683Z,1015.63
2023-04-16T01:26:44.702Z,1015.65
2023-04-16T01:27:44.685Z,1015.68
2023-04-16T01:28:44.673Z,1015.67
2023-04-16T01:29:44.676Z,1015.67
2023-04-16T01:30:44.699Z,1015.70
2023-04-16T01:31:44.761Z,1015.66
2023-04-16T01:32:44.765Z,1015.66
2023-04-16T01:33:44.657Z,1015.67
2023-04-16T01:34:44.669Z,1015.70
2023-04-16T01:35:44.669Z,1015.64
2023-04-16T01:36:44.660Z,1015.71
2023-04-16T01:37:44.655Z,1015.71
2023-04-16T01:38:44.655Z,1015.70
2023-04-16T01:39:44.897Z,1015.72
2023-04-16T01:40:44.648Z,1015.71
2023-04-16T01:41:44.684Z,1015.79
2023-04-16T01:42:44.623Z,1015.72
2023-04-16T01:43:44.621Z,1015.78
2023-04-16T01:44:44.618Z,1015.79
2023-04-16T01:45:44.647Z,1015.78
2023-04-16T01:46:44.656Z,1015.76
2023-04-16T01:47:44.651Z,1015.77
2023-04-16T01:48:44.622Z,1015.81
2023-04-16T01:49:44.613Z,1015.80
2023-04-16T01:50:44.629Z,1015.79
2023-04-16T01:51:44.586Z,1015.80
2023-04-16T01:52:44.589Z,1015.83
2023-04-16T01:53:44.573Z,1015.82
2023-04-16T01:54:44.589Z,1015.86
2023-04-16T01:55:44.558Z,1015.83
2023-04-16T01:56:44.571Z,1015.84
2023-04-16T01:57:44.568Z,1015.86
2023-04-16T01:58:44.568Z,1015.82
2023-04-16T01:59:44.544Z,1015.84
2023-04-16T02:00:44.619Z,1015.82
2023-04-16T02:01:44.569Z,1015.79
2023-04-16T02:02:44.669Z,1015.79
2023-04-16T02:03:44.760Z,1015.80
2023-04-16T02:04:44.570Z,1015.75
2023-04-16T02:05:44.532Z,1015.76
2023-04-16T02:06:44.528Z,1015.78
2023-04-16T02:07:44.514Z,1015.73
2023-04-16T02:08:44.528Z,1015.74
2023-04-16T02:09:44.519Z,1015.71
2023-04-16T02:10:44.494Z,1015.76
2023-04-16T02:11:44.490Z,1015.72
2023-04-16T02:12:44.499Z,1015.75
2023-04-16T02:13:44.515Z,1015.76
2023-04-16T02:14:44.498Z,1015.77
2023-04-16T02:15:44.482Z,1015.77
2023-04-16T02:16:44.528Z,1015.81
2023-04-16T02:17:44.525Z,1015.77
2023-04-16T02:18:44.475Z,1015.81
2023-04-16T02:19:44.465Z,1015.81
2023-04-16T02:20:44.488Z,1015.82
2023-04-16T02:21:44.456Z,1015.79
2023-04-16T02:22:44.442Z,1015.79
2023-04-16T02:23:44.430Z,1015.79
2023-04-16T02:24:44.443Z,1015.80
2023-04-16T02:25:44.459Z,1015.76
2023-04-16T02:26:44.433Z,1015.77
2023-04-16T02:27:44.459Z,1015.80
2023-04-16T02:28:44.414Z,1015.78
2023-04-16T02:29:44.420Z,1015.77
2023-04-16T02:30:44.436Z,1015.75
2023-04-16T02:31:44.506Z,1015.74
2023-04-16T02:32:44.435Z,1015.75
2023-04-16T02:33:44.401Z,1015.75
2023-04-16T02:34:44.394Z,1015.74
2023-04-16T02:35:44.411Z,1015.74
2023-04-16T02:36:44.430Z,1015.76
2023-04-16T02:37:44.388Z,1015.72
2023-04-16T02:38:44.370Z,1015.75
2023-04-16T02:39:44.385Z,1015.71
2023-04-16T02:40:44.376Z,1015.73
2023-04-16T02:41:44.353Z,1015.71
2023-04-16T02:42:44.401Z,1015.73
2023-04-16T02:43:44.367Z,1015.75
2023-04-16T02:44:44.407Z,1015.71
2023-04-16T02:45:44.374Z,1015.76
2023-04-16T02:46:44.348Z,1015.69
2023-04-16T02:47:44.339Z,1015.76
2023-04-16T02:48:44.346Z,1015.68
2023-04-16T02:49:44.347Z,1015.79
2023-04-16T02:50:44.353Z,1015.77
2023-04-16T02:51:44.314Z,1015.77
2023-04-16T02:52:44.343Z,1015.78
2023-04-16T02:53:44.313Z,1015.76
2023-04-16T02:54:44.338Z,1015.75
2023-04-16T02:55:44.323Z,1015.77
2023-04-16T02:56:44.299Z,1015.76
2023-04-16T02:57:44.337Z,1015.74
2023-04-16T02:58:44.308Z,1015.77
2023-04-16T02:59:44.300Z,1015.79
2023-04-16T03:00:44.306Z,1015.78
2023-04-16T03:01:44.310Z,1015.75
2023-04-16T03:02:44.347Z,1015.73
2023-04-16T03:03:44.342Z,1015.73
2023-04-16T03:04:44.371Z,1015.76
2023-04-16T03:05:44.277Z,1015.77
2023-04-16T03:06:44.258Z,1015.75
2023-04-16T03:07:44.261Z,1015.80
2023-04-16T03:08:44.282Z,1015.80
2023-04-16T03:09:44.294Z,1015.81
2023-04-16T03:10:44.253Z,1015.80
2023-04-16T03:11:44.262Z,1015.82
2023-04-16T03:12:44.242Z,1015.79
2023-04-16T03:13:44.303Z,1015.80
2023-04-16T03:14:44.241Z,1015.79
2023-04-16T03:15:44.279Z,1015.82
2023-04-16T03:16:44.253Z,1015.85
2023-04-16T03:17:44.316Z,1015.84
2023-04-16T03:18:44.225Z,1015.84
2023-04-16T03:19:44.212Z,1015.85
2023-04-16T03:20:44.269Z,1015.85
2023-04-16T03:21:44.243Z,1015.82
2023-04-16T03:22:44.196Z,1015.81
2023-04-16T03:23:44.195Z,1015.79
2023-04-16T03:24:44.224Z,1015.80
2023-04-16T03:25:44.182Z,1015.82
2023-04-16T03:26:44.171Z,1015.81
2023-04-16T03:27:44.181Z,1015.76
2023-04-16T03:28:44.182Z,1015.81
2023-04-16T03:29:44.156Z,1015.81
2023-04-16T03:30:44.206Z,1015.83
2023-04-16T03:31:44.158Z,1015.85
2023-04-16T03:32:44.274Z,1015.84
2023-04-16T03:33:44.157Z,1015.84
2023-04-16T03:34:44.150Z,1015.84
2023-04-16T03:35:44.144Z,1015.84
2023-04-16T03:36:44.129Z,1015.86
2023-04-16T03:37:44.117Z,1015.86
2023-04-16T03:38:44.131Z,1015.89
2023-04-16T03:39:44.143Z,1015.91
2023-04-16T03:40:44.131Z,1015.91
2023-04-16T03:41:44.130Z,1015.93
2023-04-16T03:42:44.111Z,1015.92
2023-04-16T03:43:44.136Z,1015.93
2023-04-16T03:44:44.106Z,1015.97
2023-04-16T03:45:44.114Z,1015.93
2023-04-16T03:46:44.098Z,1015.94
2023-04-16T03:47:44.124Z,1015.95
2023-04-16T03:48:44.089Z,1015.92
2023-04-16T03:49:44.147Z,1015.96
2023-04-16T03:50:44.078Z,1015.91
2023-04-16T03:51:44.067Z,1015.92
2023-04-16T03:52:44.070Z,1015.94
2023-04-16T03:53:44.089Z,1015.93
2023-04-16T03:54:44.057Z,1015.92
2023-04-16T03:55:44.150Z,1015.93
2023-04-16T03:56:44.060Z,1015.94
2023-04-16T03:57:44.087Z,1015.93
2023-04-16T03:58:44.042Z,1015.91
2023-04-16T03:59:44.033Z,1015.95
2023-04-16T04:00:44.045Z,1015.92
2023-04-16T04:01:44.033Z,1015.95
2023-04-16T04:02:44.223Z,1015.99
2023-04-16T04:03:44.263Z,1015.98
2023-04-16T04:04:44.134Z,1015.99
2023-04-16T04:05:44.016Z,1015.99
2023-04-16T04:06:44.005Z,1016.02
2023-04-16T04:07:44.029Z,1016.05
2023-04-16T04:08:44.011Z,1016.06
2023-04-16T04:09:43.999Z,1016.03
2023-04-16T04:10:43.996Z,1016.02
2023-04-16T04:11:43.981Z,1016.02
2023-04-16T04:12:44.019Z,1016.03
2023-04-16T04:13:43.986Z,1016.01
2023-04-16T04:14:43.975Z,1016.00
2023-04-16T04:15:43.964Z,1016.02
2023-04-16T04:16:43.986Z,1016.01
2023-04-16T04:17:44.008Z,1016.04
2023-04-16T04:18:44.522Z,1016.06
2023-04-16T04:19:54.238Z,1016.03
2023-04-16T04:20:43.941Z,1016.04
2023-04-16T04:21:43.950Z,1016.04
2023-04-16T04:22:43.967Z,1016.06
2023-04-16T04:23:43.934Z,1016.05
2023-04-16T04:24:43.932Z,1016.09
2023-04-16T04:25:43.916Z,1016.11
2023-04-16T04:26:43.920Z,1016.11
2023-04-16T04:27:43.907Z,1016.11
2023-04-16T04:28:43.924Z,1016.10
2023-04-16T04:29:43.911Z,1016.12
2023-04-16T04:30:43.912Z,1016.09
2023-04-16T04:31:43.910Z,1016.13
2023-04-16T04:32:43.976Z,1016.15
2023-04-16T04:33:43.882Z,1016.15
2023-04-16T04:34:43.885Z,1016.16
2023-04-16T04:35:43.873Z,1016.19
2023-04-16T04:36:43.872Z,1016.16
2023-04-16T04:37:43.890Z,1016.18
2023-04-16T04:38:43.876Z,1016.22
2023-04-16T04:39:43.865Z,1016.21
2023-04-16T04:40:43.876Z,1016.21
2023-04-16T04:41:43.858Z,1016.23
2023-04-16T04:42:43.881Z,1016.27
2023-04-16T04:43:43.847Z,1016.24
2023-04-16T04:44:43.870Z,1016.23
2023-04-16T04:45:43.870Z,1016.22
2023-04-16T04:46:43.827Z,1016.23
2023-04-16T04:47:43.875Z,1016.22
2023-04-16T04:48:43.822Z,1016.24
2023-04-16T04:49:43.844Z,1016.22
2023-04-16T04:50:43.830Z,1016.23
2023-04-16T04:51:43.811Z,1016.24
2023-04-16T04:52:43.810Z,1016.25
2023-04-16T04:53:43.796Z,1016.30
2023-04-16T04:54:43.835Z,1016.28
2023-04-16T04:55:43.792Z,1016.27
2023-04-16T04:56:43.801Z,1016.29
2023-04-16T04:57:43.809Z,1016.31
2023-04-16T04:58:43.793Z,1016.31
2023-04-16T04:59:43.785Z,1016.31
2023-04-16T05:00:43.883Z,1016.34
2023-04-16T05:01:43.780Z,1016.32
2023-04-16T05:02:43.868Z,1016.33
2023-04-16T05:03:43.832Z,1016.32
2023-04-16T05:04:43.843Z,1016.38
2023-04-16T05:05:43.759Z,1016.39
2023-04-16T05:06:43.755Z,1016.38
2023-04-16T05:07:43.735Z,1016.36
2023-04-16T05:08:43.726Z,1016.39
2023-04-16T05:09:43.736Z,1016.39
2023-04-16T05:10:43.745Z,1016.34
2023-04-16T05:11:43.729Z,1016.35
2023-04-16T05:12:43.729Z,1016.40
2023-04-16T05:13:43.720Z,1016.40
2023-04-16T05:14:43.767Z,1016.37
2023-04-16T05:15:43.704Z,1016.40
2023-04-16T05:16:43.772Z,1016.41
2023-04-16T05:17:43.740Z,1016.42
2023-04-16T05:18:43.721Z,1016.46
2023-04-16T05:19:43.693Z,1016.43
2023-04-16T05:20:43.693Z,1016.46
2023-04-16T05:21:43.683Z,1016.46
2023-04-16T05:22:43.693Z,1016.45
2023-04-16T05:23:43.692Z,1016.49
2023-04-16T05:24:43.662Z,1016.49
2023-04-16T05:25:43.673Z,1016.54
2023-04-16T05:26:43.654Z,1016.50
2023-04-16T05:27:43.658Z,1016.51
2023-04-16T05:28:43.647Z,1016.51
2023-04-16T05:29:43.649Z,1016.53
2023-04-16T05:30:43.671Z,1016.50
2023-04-16T05:31:43.690Z,1016.50
2023-04-16T05:32:43.679Z,1016.47
2023-04-16T05:33:43.630Z,1016.51
2023-04-16T05:34:43.626Z,1016.50
2023-04-16T05:35:43.606Z,1016.52
2023-04-16T05:36:43.609Z,1016.57
2023-04-16T05:37:43.625Z,1016.50
2023-04-16T05:38:43.618Z,1016.56
2023-04-16T05:39:43.608Z,1016.54
2023-04-16T05:40:43.599Z,1016.58
2023-04-16T05:41:43.652Z,1016.54
2023-04-16T05:42:43.581Z,1016.54
2023-04-16T05:43:43.579Z,1016.55
2023-04-16T05:44:43.569Z,1016.57
2023-04-16T05:45:43.578Z,1016.59
2023-04-16T05:46:43.571Z,1016.56
2023-04-16T05:47:43.608Z,1016.62
2023-04-16T05:48:43.587Z,1016.60
2023-04-16T05:49:43.552Z,1016.58
2023-04-16T05:50:43.563Z,1016.59
2023-04-16T05:51:43.551Z,1016.62
2023-04-16T05:52:43.528Z,1016.59
2023-04-16T05:53:43.539Z,1016.62
2023-04-16T05:54:43.540Z,1016.64
2023-04-16T05:55:43.548Z,1016.59
2023-04-16T05:56:43.528Z,1016.62
2023-04-16T05:57:43.529Z,1016.58
2023-04-16T05:58:43.567Z,1016.64
2023-04-16T05:59:43.515Z,1016.65
2023-04-16T06:00:43.491Z,1016.65
2023-04-16T06:01:43.515Z,1016.64
2023-04-16T06:02:43.583Z,1016.68
2023-04-16T06:03:43.721Z,1016.64
2023-04-16T06:04:43.500Z,1016.68
2023-04-16T06:05:43.495Z,1016.66
2023-04-16T06:06:43.512Z,1016.64
2023-04-16T06:07:43.495Z,1016.66
2023-04-16T06:08:43.469Z,1016.66
2023-04-16T06:09:43.475Z,1016.64
2023-04-16T06:10:43.489Z,1016.66
2023-04-16T06:11:43.504Z,1016.70
2023-04-16T06:12:43.441Z,1016.70
2023-04-16T06:13:43.437Z,1016.71
2023-04-16T06:14:43.452Z,1016.73
2023-04-16T06:15:43.521Z,1016.76
2023-04-16T06:16:43.440Z,1016.76
2023-04-16T06:17:43.487Z,1016.79
2023-04-16T06:18:43.420Z,1016.82
2023-04-16T06:19:43.410Z,1016.83
2023-04-16T06:20:43.426Z,1016.83
2023-04-16T06:21:43.427Z,1016.85
2023-04-16T06:22:43.410Z,1016.89
2023-04-16T06:23:43.399Z,1016.88
2023-04-16T06:24:43.411Z,1016.88
2023-04-16T06:25:43.419Z,1016.87
2023-04-16T06:26:43.378Z,1016.90
2023-04-16T06:27:43.379Z,1016.92
2023-04-16T06:28:43.388Z,1016.92
2023-04-16T06:29:43.381Z,1016.95
2023-04-16T06:30:44.622Z,1016.94
2023-04-16T06:31:43.405Z,1016.98
2023-04-16T06:32:43.476Z,1017.00
2023-04-16T06:33:43.373Z,1016.96
2023-04-16T06:34:43.373Z,1016.95
2023-04-16T06:35:43.343Z,1016.96
2023-04-16T06:36:43.358Z,1016.97
2023-04-16T06:37:43.339Z,1016.97
2023-04-16T06:38:43.342Z,1016.99
2023-04-16T06:39:43.348Z,1017.03
2023-04-16T06:40:43.366Z,1017.02
2023-04-16T06:41:43.323Z,1017.03
2023-04-16T06:42:45.270Z,1017.07
2023-04-16T06:43:43.375Z,1017.09
2023-04-16T06:44:43.364Z,1017.08
2023-04-16T06:45:43.327Z,1017.09
2023-04-16T06:46:43.353Z,1017.11
2023-04-16T06:47:43.384Z,1017.10
2023-04-16T06:48:43.311Z,1017.13
2023-04-16T06:49:43.320Z,1017.11
2023-04-16T06:50:43.334Z,1017.14
2023-04-16T06:51:43.328Z,1017.11
2023-04-16T06:52:43.362Z,1017.07
2023-04-16T06:53:43.326Z,1017.07
2023-04-16T06:54:43.341Z,1017.04
2023-04-16T06:55:43.300Z,1017.08
2023-04-16T06:56:43.245Z,1017.10
2023-04-16T06:57:43.256Z,1017.13
2023-04-16T06:58:43.260Z,1017.10
2023-04-16T06:59:43.254Z,1017.11
2023-04-16T07:00:43.266Z,1017.12
2023-04-16T07:01:43.250Z,1017.16
2023-04-16T07:02:43.338Z,1017.16
2023-04-16T07:03:43.410Z,1017.13
2023-04-16T07:04:43.218Z,1017.15
2023-04-16T07:05:43.223Z,1017.16
2023-04-16T07:06:43.232Z,1017.19
2023-04-16T07:07:43.221Z,1017.14
2023-04-16T07:08:43.238Z,1017.18
2023-04-16T07:09:43.230Z,1017.16
2023-04-16T07:10:43.186Z,1017.16
2023-04-16T07:11:43.189Z,1017.17
2023-04-16T07:12:43.186Z,1017.20
2023-04-16T07:13:43.192Z,1017.19
2023-04-16T07:14:43.167Z,1017.23
2023-04-16T07:15:43.188Z,1017.20
2023-04-16T07:16:43.244Z,1017.18
2023-04-16T07:17:43.220Z,1017.21
2023-04-16T07:18:43.189Z,1017.15
2023-04-16T07:19:43.165Z,1017.20
2023-04-16T07:20:43.152Z,1017.17
2023-04-16T07:21:43.156Z,1017.18
2023-04-16T07:22:43.137Z,1017.21
2023-04-16T07:23:43.134Z,1017.21
2023-04-16T07:24:43.162Z,1017.17
2023-04-16T07:25:43.143Z,1017.17
2023-04-16T07:26:43.115Z,1017.21
2023-04-16T07:27:43.130Z,1017.20
2023-04-16T07:28:43.112Z,1017.20
2023-04-16T07:29:43.127Z,1017.20
2023-04-16T07:30:43.140Z,1017.21
2023-04-16T07:31:43.183Z,1017.19
2023-04-16T07:32:43.117Z,1017.19
2023-04-16T07:33:43.096Z,1017.23
2023-04-16T07:34:43.102Z,1017.19
2023-04-16T07:35:43.106Z,1017.21
2023-04-16T07:36:43.083Z,1017.23
2023-04-16T07:37:43.080Z,1017.20
2023-04-16T07:38:43.093Z,1017.21
2023-04-16T07:39:43.082Z,1017.26
2023-04-16T07:40:43.095Z,1017.22
2023-04-16T07:41:43.106Z,1017.26
2023-04-16T07:42:43.057Z,1017.27
2023-04-16T07:43:43.052Z,1017.30
2023-04-16T07:44:43.066Z,1017.31
2023-04-16T07:45:43.121Z,1017.29
2023-04-16T07:46:47.025Z,1017.31
2023-04-16T07:47:43.070Z,1017.29
2023-04-16T07:48:43.060Z,1017.31
2023-04-16T07:49:43.062Z,1017.30
2023-04-16T07:50:43.012Z,1017.33
2023-04-16T07:51:43.028Z,1017.34
2023-04-16T07:52:43.006Z,1017.33
2023-04-16T07:53:43.024Z,1017.36
2023-04-16T07:54:43.001Z,1017.32
2023-04-16T07:55:43.004Z,1017.35
2023-04-16T07:56:43.026Z,1017.37
2023-04-16T07:57:42.999Z,1017.36
2023-04-16T07:58:42.980Z,1017.36
2023-04-16T07:59:43.038Z,1017.39
2023-04-16T08:00:43.000Z,1017.39
2023-04-16T08:01:43.030Z,1017.38
2023-04-16T08:02:43.036Z,1017.39
2023-04-16T08:03:43.242Z,1017.41
2023-04-16T08:04:43.196Z,1017.38
2023-04-16T08:05:42.980Z,1017.41
2023-04-16T08:07:25.183Z,1017.37
2023-04-16T08:08:25.179Z,1017.36
2023-04-16T08:09:25.184Z,1017.44
2023-04-16T08:10:25.184Z,1017.47
2023-04-16T08:11:25.151Z,1017.48
2023-04-16T08:12:25.175Z,1017.49
2023-04-16T08:13:25.153Z,1017.50
2023-04-16T08:14:28.394Z,1017.52
2023-04-16T08:15:25.167Z,1017.54
2023-04-16T08:16:25.262Z,1017.55
2023-04-16T08:18:23.804Z,1017.59
2023-04-16T08:19:23.837Z,1017.62
2023-04-16T08:20:23.789Z,1017.61
2023-04-16T08:21:23.777Z,1017.65
2023-04-16T08:22:23.809Z,1017.69
2023-04-16T08:23:23.784Z,1017.72
2023-04-16T08:24:23.800Z,1017.70
2023-04-16T08:25:23.769Z,1017.74
2023-04-16T08:26:26.407Z,1017.71
2023-04-16T08:27:23.771Z,1017.69
2023-04-16T08:28:24.074Z,1017.70
2023-04-16T08:29:23.757Z,1017.71
2023-04-16T08:30:23.760Z,1017.74
2023-04-16T08:36:49.330Z,1017.73
2023-04-16T08:37:49.358Z,1017.74
2023-04-16T08:38:49.361Z,1017.77
2023-04-16T08:39:49.334Z,1017.82
2023-04-16T08:40:49.331Z,1017.79
2023-04-16T08:41:52.976Z,1017.82
2023-04-16T08:42:49.312Z,1017.86
2023-04-16T08:43:49.330Z,1017.84
2023-04-16T08:44:49.473Z,1017.80
2023-04-16T08:45:49.299Z,1017.87
2023-04-16T08:46:49.329Z,1017.86
2023-04-16T08:47:49.408Z,1017.88
2023-04-16T08:48:49.309Z,1017.91
2023-04-16T08:49:49.288Z,1017.95
2023-04-16T08:50:49.291Z,1017.96
2023-04-16T08:51:49.292Z,1017.92
2023-04-16T08:52:49.273Z,1017.93
2023-04-16T08:53:49.279Z,1017.93
2023-04-16T08:54:56.985Z,1018.00
2023-04-16T08:55:49.263Z,1018.03
2023-04-16T08:56:49.255Z,1018.03
2023-04-16T08:57:49.249Z,1018.05
2023-04-16T08:58:49.283Z,1018.06
2023-04-16T08:59:49.374Z,1018.04
2023-04-16T09:00:49.270Z,1018.00
2023-04-16T09:01:49.361Z,1018.05
2023-04-16T09:02:49.483Z,1018.00
2023-04-16T09:03:49.345Z,1018.05
2023-04-16T09:04:49.277Z,1018.10
2023-04-16T09:05:49.232Z,1018.03
2023-04-16T09:06:49.193Z,1018.06
2023-04-16T09:07:49.217Z,1018.06
2023-04-16T09:08:49.219Z,1018.05
2023-04-16T09:09:49.200Z,1018.04
2023-04-16T09:10:49.268Z,1018.04
2023-04-16T09:11:49.188Z,1018.00
2023-04-16T09:12:49.166Z,1018.06
2023-04-16T09:13:49.166Z,1018.02
2023-04-16T09:14:49.169Z,1018.05
2023-04-16T09:15:49.214Z,1018.04
2023-04-16T09:16:49.200Z,1018.08
2023-04-16T09:17:49.222Z,1018.03
2023-04-16T09:18:49.145Z,1018.05
2023-04-16T09:19:49.099Z,1018.09
2023-04-16T09:20:49.105Z,1018.13
2023-04-16T09:21:49.094Z,1018.08
2023-04-16T09:22:49.112Z,1018.07
2023-04-16T09:23:49.086Z,1018.01
2023-04-16T09:24:49.089Z,1018.07
2023-04-16T09:25:49.056Z,1018.10
2023-04-16T09:26:49.070Z,1018.13
2023-04-16T09:27:49.077Z,1018.07
2023-04-16T09:28:49.050Z,1018.11
2023-04-16T09:29:49.031Z,1018.10
2023-04-16T09:30:49.021Z,1018.14
2023-04-16T09:31:49.071Z,1018.11
2023-04-16T09:32:49.052Z,1018.08
2023-04-16T09:33:49.005Z,1018.18
2023-04-16T09:34:49.001Z,1018.18
2023-04-16T09:35:49.007Z,1018.18
2023-04-16T09:36:48.984Z,1018.16
2023-04-16T09:37:48.983Z,1018.20
2023-04-16T09:38:48.966Z,1018.15
2023-04-16T09:39:48.938Z,1018.21
2023-04-16T09:40:48.947Z,1018.19
2023-04-16T09:41:48.944Z,1018.21
2023-04-16T09:42:48.967Z,1018.19
2023-04-16T09:43:48.926Z,1018.22
2023-04-16T09:44:48.918Z,1018.26
2023-04-16T09:45:48.939Z,1018.23
2023-04-16T09:46:48.897Z,1018.27
2023-04-16T09:47:48.949Z,1018.28
2023-04-16T09:48:48.896Z,1018.26
2023-04-16T09:49:48.877Z,1018.25
2023-04-16T09:50:48.935Z,1018.23
2023-04-16T09:51:48.861Z,1018.24
2023-04-16T09:52:48.873Z,1018.27
2023-04-16T09:53:48.856Z,1018.28
2023-04-16T09:54:48.858Z,1018.29
2023-04-16T09:55:48.825Z,1018.29
2023-04-16T09:56:48.850Z,1018.32
2023-04-16T09:57:48.829Z,1018.34
2023-04-16T09:59:47.464Z,1018.31
2023-04-16T10:00:47.511Z,1018.31
2023-04-16T10:01:47.528Z,1018.34
2023-04-16T10:02:49.236Z,1018.32
2023-04-16T10:03:47.484Z,1018.35
2023-04-16T10:04:47.370Z,1018.35
2023-04-16T10:05:47.250Z,1018.35
2023-04-16T10:06:47.233Z,1018.35
2023-04-16T10:07:47.220Z,1018.37
2023-04-16T10:08:49.131Z,1018.39
2023-04-16T10:09:47.218Z,1018.37
2023-04-16T10:10:47.233Z,1018.35
2023-04-16T10:11:47.224Z,1018.40
2023-04-16T10:12:47.222Z,1018.41
2023-04-16T10:13:47.220Z,1018.39
2023-04-16T10:14:48.363Z,1018.41
2023-04-16T10:15:47.179Z,1018.38
2023-04-16T10:16:47.183Z,1018.39
2023-04-16T10:17:47.225Z,1018.41
2023-04-16T10:18:47.172Z,1018.40
2023-04-16T10:19:47.184Z,1018.39
2023-04-16T10:20:47.172Z,1018.34
2023-04-16T10:21:47.160Z,1018.41
2023-04-16T10:22:47.153Z,1018.40
2023-04-16T10:23:47.149Z,1018.42
2023-04-16T10:24:47.147Z,1018.38
2023-04-16T10:25:47.149Z,1018.42
2023-04-16T10:26:47.141Z,1018.40
2023-04-16T10:27:47.152Z,1018.40
2023-04-16T10:28:47.140Z,1018.38
2023-04-16T10:29:47.125Z,1018.35
2023-04-16T10:30:47.135Z,1018.38
2023-04-16T10:31:47.111Z,1018.36
2023-04-16T10:32:47.134Z,1018.36
2023-04-16T10:33:47.119Z,1018.38
2023-04-16T10:34:47.108Z,1018.33
2023-04-16T10:35:52.341Z,1018.38
2023-04-16T10:36:47.103Z,1018.41
2023-04-16T10:37:47.085Z,1018.36
2023-04-16T10:38:47.129Z,1018.42
2023-04-16T10:39:47.089Z,1018.41
2023-04-16T10:40:47.066Z,1018.38
2023-04-16T10:41:47.073Z,1018.40
2023-04-16T10:42:47.103Z,1018.39
2023-04-16T10:43:47.066Z,1018.41
2023-04-16T10:44:47.058Z,1018.41
2023-04-16T10:45:47.092Z,1018.37
2023-04-16T10:46:47.047Z,1018.39
2023-04-16T10:47:47.123Z,1018.39
2023-04-16T10:48:50.239Z,1018.39
2023-04-16T10:49:47.033Z,1018.36
2023-04-16T10:50:47.035Z,1018.39
2023-04-16T10:51:47.035Z,1018.37
2023-04-16T10:52:47.030Z,1018.37
2023-04-16T10:53:47.021Z,1018.38
2023-04-16T10:54:47.022Z,1018.37
2023-04-16T10:55:47.012Z,1018.32
2023-04-16T10:56:47.026Z,1018.34
2023-04-16T10:57:47.011Z,1018.37
2023-04-16T10:58:47.006Z,1018.29
2023-04-16T10:59:47.003Z,1018.32
2023-04-16T11:00:46.992Z,1018.33
2023-04-16T11:01:47.009Z,1018.34
2023-04-16T11:02:47.183Z,1018.32
2023-04-16T11:03:47.145Z,1018.38
2023-04-16T11:04:47.263Z,1018.34
2023-04-16T11:05:47.003Z,1018.39
2023-04-16T11:06:46.977Z,1018.35
2023-04-16T11:07:47.654Z,1018.37
2023-04-16T11:08:54.673Z,1018.38
2023-04-16T11:09:46.997Z,1018.36
2023-04-16T11:10:47.014Z,1018.35
2023-04-16T11:11:46.931Z,1018.36
2023-04-16T11:12:46.951Z,1018.39
2023-04-16T11:13:46.953Z,1018.40
2023-04-16T11:14:46.914Z,1018.36
2023-04-16T11:15:46.972Z,1018.32
2023-04-16T11:16:46.920Z,1018.33
2023-04-16T11:17:46.984Z,1018.34
2023-04-16T11:18:48.835Z,1018.26
2023-04-16T11:19:46.966Z,1018.33
2023-04-16T11:20:46.923Z,1018.32
2023-04-16T11:21:46.899Z,1018.39
2023-04-16T11:22:46.915Z,1018.36
2023-04-16T11:23:46.920Z,1018.32
2023-04-16T11:24:46.926Z,1018.37
2023-04-16T11:25:46.912Z,1018.34
2023-04-16T11:26:46.886Z,1018.35
2023-04-16T11:27:46.872Z,1018.35
2023-04-16T11:28:46.914Z,1018.35
2023-04-16T11:29:47.617Z,1018.38
2023-04-16T11:30:46.876Z,1018.32
2023-04-16T11:31:47.000Z,1018.34
2023-04-16T11:32:46.928Z,1018.33
2023-04-16T11:33:46.871Z,1018.34
2023-04-16T11:34:46.844Z,1018.41
2023-04-16T11:35:46.846Z,1018.37
2023-04-16T11:36:46.870Z,1018.37
2023-04-16T11:37:46.853Z,1018.38
2023-04-16T11:38:46.833Z,1018.36
2023-04-16T11:39:46.893Z,1018.38
2023-04-16T11:40:46.829Z,1018.42
2023-04-16T11:41:46.835Z,1018.43
2023-04-16T11:42:46.862Z,1018.43
2023-04-16T11:43:46.823Z,1018.36
2023-04-16T11:44:46.826Z,1018.39
2023-04-16T11:45:46.812Z,1018.40
2023-04-16T11:46:46.884Z,1018.39
2023-04-16T11:47:46.855Z,1018.39
2023-04-16T11:48:46.836Z,1018.38
2023-04-16T11:49:46.797Z,1018.42
2023-04-16T11:50:46.804Z,1018.44
2023-04-16T11:51:46.793Z,1018.44
2023-04-16T11:52:46.782Z,1018.42
2023-04-16T11:53:46.776Z,1018.43
2023-04-16T11:54:46.776Z,1018.48
2023-04-16T11:55:46.821Z,1018.44
2023-04-16T11:56:46.767Z,1018.45
2023-04-16T11:57:46.838Z,1018.45
2023-04-16T11:58:46.764Z,1018.47
2023-04-16T12:00:02.585Z,1018.41
2023-04-16T12:00:46.769Z,1018.43
2023-04-16T12:01:46.769Z,1018.43
2023-04-16T12:02:46.890Z,1018.43
2023-04-16T12:03:47.083Z,1018.44
2023-04-16T12:04:46.879Z,1018.45
2023-04-16T12:05:46.742Z,1018.45
2023-04-16T12:06:46.743Z,1018.47
2023-04-16T12:07:46.759Z,1018.46
2023-04-16T12:08:46.754Z,1018.43
2023-04-16T12:09:46.881Z,1018.48
2023-04-16T12:10:46.753Z,1018.42
2023-04-16T12:11:46.730Z,1018.48
2023-04-16T12:12:46.713Z,1018.48
2023-04-16T12:13:46.711Z,1018.52